createdAt,value
2019-02-11T00:03:38.033Z,8.60
2019-02-11T00:06:07.645Z,13.83
2019-02-11T00:08:59.633Z,9.77
2019-02-11T00:11:08.286Z,12.83
2019-02-11T00:13:37.713Z,11.20
2019-02-11T00:16:07.123Z,15.27
2019-02-11T00:18:36.718Z,12.10
2019-02-11T00:21:06.280Z,10.23
2019-02-11T00:23:35.696Z,11.53
2019-02-11T00:26:24.406Z,10.03
2019-02-11T00:28:54.071Z,10.87
2019-02-11T00:31:23.791Z,11.30
2019-02-11T00:36:29.528Z,11.70
2019-02-11T00:38:59.002Z,12.93
2019-02-11T00:41:28.417Z,14.23
2019-02-11T00:43:57.843Z,13.80
2019-02-11T00:46:27.297Z,11.13
2019-02-11T00:49:16.991Z,15.63
2019-02-11T00:51:46.687Z,11.37
2019-02-11T00:54:16.110Z,10.67
2019-02-11T00:56:45.580Z,11.83
2019-02-11T00:59:15.315Z,8.13
2019-02-11T01:01:46.516Z,10.33
2019-02-11T01:04:27.376Z,11.53
2019-02-11T01:06:57.000Z,8.27
2019-02-11T01:09:31.457Z,14.50
2019-02-11T01:12:00.925Z,13.87
2019-02-11T01:14:30.447Z,11.77
2019-02-11T01:17:00.075Z,11.23
2019-02-11T01:19:29.489Z,12.30
2019-02-11T01:22:08.488Z,11.47
2019-02-11T01:24:37.959Z,14.47
2019-02-11T01:27:07.407Z,17.33
2019-02-11T01:29:36.889Z,8.90
2019-02-11T01:32:06.340Z,14.20
2019-02-11T01:34:54.819Z,16.03
2019-02-11T01:40:10.077Z,12.67
2019-02-11T01:48:08.886Z,14.43
2019-02-11T01:53:55.409Z,15.87
2019-02-11T01:59:06.084Z,14.30
2019-02-11T02:01:35.576Z,18.97
2019-02-11T02:04:04.996Z,14.40
2019-02-11T02:09:11.206Z,17.93
2019-02-11T02:11:52.639Z,14.10
2019-02-11T02:14:22.354Z,16.90
2019-02-11T02:16:51.863Z,10.53
2019-02-11T02:19:40.288Z,12.53
2019-02-11T02:22:09.798Z,12.13
2019-02-11T02:24:39.221Z,12.93
2019-02-11T02:27:08.667Z,15.90
2019-02-11T02:29:38.066Z,16.27
2019-02-11T02:32:07.487Z,17.57
2019-02-11T02:40:25.745Z,13.20
2019-02-11T02:42:55.159Z,11.63
2019-02-11T02:45:24.591Z,13.80
2019-02-11T02:47:54.017Z,8.90
2019-02-11T02:56:04.880Z,16.83
2019-02-11T02:58:34.290Z,15.00
2019-02-11T03:01:04.527Z,10.80
2019-02-11T03:03:33.991Z,12.53
2019-02-11T03:06:04.585Z,15.93
2019-02-11T03:08:33.983Z,10.87
2019-02-11T03:11:12.266Z,13.83
2019-02-11T03:13:53.015Z,12.63
2019-02-11T03:16:22.521Z,15.73
2019-02-11T03:18:51.994Z,14.27
2019-02-11T03:21:40.421Z,12.90
2019-02-11T03:24:09.879Z,18.50
2019-02-11T03:27:02.138Z,15.33
2019-02-11T03:29:31.802Z,8.23
2019-02-11T03:32:01.239Z,11.47
2019-02-11T03:34:30.767Z,12.87
2019-02-11T03:37:00.236Z,12.97
2019-02-11T03:39:29.692Z,10.83
2019-02-11T03:42:18.409Z,14.87
2019-02-11T03:47:42.028Z,14.50
2019-02-11T03:50:31.868Z,12.70
2019-02-11T03:53:01.541Z,14.47
2019-02-11T03:55:31.132Z,14.33
2019-02-11T03:58:00.513Z,14.67
2019-02-11T04:00:29.990Z,12.60
2019-02-11T04:02:59.596Z,15.73
2019-02-11T04:05:29.000Z,13.60
2019-02-11T04:10:33.443Z,15.30
2019-02-11T04:13:34.090Z,13.50
2019-02-11T04:15:59.418Z,15.43
2019-02-11T04:18:28.886Z,17.50
2019-02-11T04:20:58.394Z,16.03
2019-02-11T04:23:27.918Z,10.23
2019-02-11T04:26:16.383Z,13.17
2019-02-11T04:32:03.922Z,13.33
2019-02-11T04:34:33.338Z,10.90
2019-02-11T04:37:22.034Z,12.23
2019-02-11T04:39:51.765Z,13.17
2019-02-11T04:42:23.958Z,13.50
2019-02-11T04:45:12.436Z,14.33
2019-02-11T04:47:41.956Z,10.53
2019-02-11T04:50:11.499Z,13.77
2019-02-11T04:52:59.966Z,13.53
2019-02-11T04:55:29.951Z,16.27
2019-02-11T04:58:18.726Z,13.27
2019-02-11T05:00:48.828Z,15.77
2019-02-11T05:06:08.329Z,9.70
2019-02-11T05:08:56.585Z,10.93
2019-02-11T05:11:26.266Z,12.10
2019-02-11T05:13:55.770Z,11.23
2019-02-11T05:16:44.270Z,16.47
2019-02-11T05:19:13.780Z,9.37
2019-02-11T05:21:43.360Z,9.70
2019-02-11T05:24:12.984Z,12.27
2019-02-11T05:26:42.400Z,11.90
2019-02-11T05:29:11.979Z,10.20
2019-02-11T05:31:41.515Z,11.03
2019-02-11T05:34:11.026Z,12.60
2019-02-11T05:36:40.483Z,12.43
2019-02-11T05:39:09.904Z,10.47
2019-02-11T05:41:39.337Z,9.37
2019-02-11T05:44:08.776Z,12.03
2019-02-11T05:46:38.261Z,14.00
2019-02-11T05:49:07.689Z,15.23
2019-02-11T05:51:37.100Z,14.30
2019-02-11T05:54:06.575Z,8.23
2019-02-11T05:56:54.969Z,13.90
2019-02-11T05:59:43.368Z,11.60
2019-02-11T06:05:03.429Z,11.50
2019-02-11T06:07:32.888Z,16.97
2019-02-11T06:10:02.362Z,14.10
2019-02-11T06:12:55.259Z,17.57
2019-02-11T06:15:43.534Z,14.33
2019-02-11T06:20:49.009Z,12.27
2019-02-11T06:25:55.111Z,11.00
2019-02-11T06:28:24.693Z,9.33
2019-02-11T06:30:54.165Z,15.43
2019-02-11T06:33:25.369Z,11.73
2019-02-11T06:35:54.832Z,13.30
2019-02-11T06:38:24.278Z,14.70
2019-02-11T06:40:54.230Z,14.80
2019-02-11T06:43:23.726Z,11.87
2019-02-11T06:45:53.267Z,13.03
2019-02-11T06:48:22.830Z,16.30
2019-02-11T06:50:52.398Z,15.37
2019-02-11T06:53:24.308Z,9.97
2019-02-11T06:55:53.909Z,12.43
2019-02-11T06:58:23.320Z,13.27
2019-02-11T07:00:52.741Z,5.83
2019-02-11T07:03:33.613Z,13.70
2019-02-11T07:06:03.376Z,13.03
2019-02-11T07:08:32.851Z,13.07
2019-02-11T07:11:02.464Z,11.10
2019-02-11T07:13:51.177Z,9.07
2019-02-11T07:16:32.461Z,9.03
2019-02-11T07:21:56.763Z,7.90
2019-02-11T07:24:45.080Z,11.03
2019-02-11T07:27:26.013Z,9.70
2019-02-11T07:29:55.871Z,12.00
2019-02-11T07:32:25.264Z,8.17
2019-02-11T07:34:54.812Z,11.23
2019-02-11T07:37:24.199Z,8.53
2019-02-11T07:39:53.612Z,9.37
2019-02-11T07:45:30.065Z,7.17
2019-02-11T07:47:59.086Z,15.60
2019-02-11T07:50:28.479Z,6.17
2019-02-11T07:55:38.910Z,9.93
2019-02-11T08:00:49.492Z,8.90
2019-02-11T08:06:02.874Z,8.73
2019-02-11T08:11:25.785Z,7.90
2019-02-11T08:13:55.204Z,6.83
2019-02-11T08:16:24.647Z,10.13
2019-02-11T08:18:54.230Z,11.03
2019-02-11T08:21:23.703Z,8.37
2019-02-11T08:23:53.152Z,12.60
2019-02-11T08:26:22.784Z,7.87
2019-02-11T08:28:52.285Z,9.47
2019-02-11T08:31:42.562Z,10.90
2019-02-11T08:34:12.371Z,9.67
2019-02-11T08:36:41.889Z,10.23
2019-02-11T08:41:56.656Z,9.17
2019-02-11T08:47:07.685Z,10.53
2019-02-11T08:49:37.119Z,9.27
2019-02-11T08:52:06.531Z,8.80
2019-02-11T08:54:54.786Z,11.93
2019-02-11T09:00:14.925Z,7.20
2019-02-11T09:03:12.467Z,12.43
2019-02-11T09:06:04.114Z,11.80
2019-02-11T09:08:33.703Z,10.27
2019-02-11T09:11:03.205Z,9.80
2019-02-11T09:13:32.623Z,8.77
2019-02-11T09:16:02.027Z,8.10
2019-02-11T09:18:31.438Z,10.83
2019-02-11T09:21:22.247Z,9.60
2019-02-11T09:24:13.151Z,7.47
2019-02-11T09:29:23.202Z,8.33
2019-02-11T09:31:52.662Z,5.33
2019-02-11T09:37:13.330Z,9.47
2019-02-11T09:40:01.783Z,5.67
2019-02-11T09:45:13.687Z,3.77
2019-02-11T09:50:38.080Z,3.83
2019-02-11T09:53:26.671Z,1.90
2019-02-11T09:58:55.871Z,2.53
2019-02-11T10:01:25.309Z,2.80
2019-02-11T10:03:54.739Z,1.43
2019-02-11T10:06:43.443Z,1.83
2019-02-11T10:09:14.461Z,2.73
2019-02-11T10:11:45.959Z,1.00
2019-02-11T10:14:34.459Z,1.30
2019-02-11T10:19:57.555Z,1.23
2019-02-11T10:22:27.001Z,0.83
2019-02-11T10:24:56.377Z,0.90
2019-02-11T10:27:44.827Z,1.13
2019-02-11T10:30:15.120Z,2.10
2019-02-11T10:32:44.539Z,0.80
2019-02-11T10:35:42.065Z,0.80
2019-02-11T10:41:00.150Z,0.97
2019-02-11T10:43:29.714Z,0.70
2019-02-11T10:46:32.672Z,0.90
2019-02-11T10:49:01.012Z,0.77
2019-02-11T10:51:30.696Z,0.60
2019-02-11T10:56:49.058Z,1.00
2019-02-11T10:59:18.982Z,0.80
2019-02-11T11:02:09.441Z,1.20
2019-02-11T11:04:39.261Z,0.87
2019-02-11T11:07:10.776Z,0.80
2019-02-11T11:12:15.359Z,0.50
2019-02-11T11:14:44.919Z,0.70
2019-02-11T11:17:14.369Z,0.60
2019-02-11T11:20:02.859Z,1.17
2019-02-11T11:22:32.325Z,0.60
2019-02-11T11:25:01.766Z,0.80
2019-02-11T11:27:31.198Z,0.90
2019-02-11T11:30:00.610Z,1.00
2019-02-11T11:32:34.349Z,0.80
2019-02-11T11:35:03.827Z,0.97
2019-02-11T11:37:33.238Z,1.13
2019-02-11T11:43:11.573Z,1.27
2019-02-11T11:45:41.458Z,1.10
2019-02-11T11:48:33.724Z,0.70
2019-02-11T11:53:45.710Z,1.37
2019-02-11T11:56:15.192Z,0.80
2019-02-11T11:59:03.817Z,1.50
2019-02-11T12:01:33.255Z,1.00
2019-02-11T12:04:24.602Z,0.93
2019-02-11T12:07:06.330Z,0.87
2019-02-11T12:09:35.806Z,1.27
2019-02-11T12:12:05.228Z,1.10
2019-02-11T12:14:34.717Z,1.00
2019-02-11T12:17:04.199Z,1.13
2019-02-11T12:19:53.702Z,1.00
2019-02-11T12:22:23.224Z,1.20
2019-02-11T12:24:52.801Z,0.90
2019-02-11T12:27:22.335Z,0.90
2019-02-11T12:29:52.266Z,2.63
2019-02-11T12:32:21.877Z,1.00
2019-02-11T12:34:54.139Z,1.00
2019-02-11T12:37:23.630Z,0.93
2019-02-11T12:39:53.053Z,2.00
2019-02-11T12:42:22.490Z,1.43
2019-02-11T12:44:52.251Z,1.00
2019-02-11T12:47:21.711Z,1.10
2019-02-11T12:49:57.909Z,1.77
2019-02-11T12:52:27.594Z,1.30
2019-02-11T12:54:57.029Z,1.10
2019-02-11T12:57:26.691Z,1.50
2019-02-11T12:59:56.103Z,2.33
2019-02-11T13:02:25.582Z,0.87
2019-02-11T13:04:59.704Z,2.10
2019-02-11T13:07:29.174Z,1.63
2019-02-11T13:09:59.156Z,1.40
2019-02-11T13:12:28.570Z,1.07
2019-02-11T13:14:58.589Z,1.73
2019-02-11T13:17:33.788Z,1.47
2019-02-11T13:20:09.094Z,1.47
2019-02-11T13:25:43.438Z,1.10
2019-02-11T13:28:24.808Z,1.20
2019-02-11T13:30:54.386Z,1.03
2019-02-11T13:33:23.821Z,3.10
2019-02-11T13:35:53.365Z,1.33
2019-02-11T13:38:22.869Z,1.60
2019-02-11T13:40:52.442Z,1.50
2019-02-11T13:43:21.926Z,1.23
2019-02-11T13:45:51.640Z,2.37
2019-02-11T13:48:21.321Z,2.17
2019-02-11T13:50:50.966Z,1.33
2019-02-11T13:56:14.771Z,2.30
2019-02-11T13:58:44.341Z,3.63
2019-02-11T14:06:54.021Z,2.23
2019-02-11T14:09:23.478Z,2.57
2019-02-11T14:12:07.217Z,2.93
2019-02-11T14:14:35.831Z,0.80
2019-02-11T14:17:17.163Z,0.90
2019-02-11T14:19:46.729Z,3.93
2019-02-11T14:22:16.159Z,2.00
2019-02-11T14:24:51.474Z,1.77
2019-02-11T14:27:23.002Z,1.40
2019-02-11T14:29:52.478Z,2.20
2019-02-11T14:32:41.176Z,1.00
2019-02-11T14:38:24.316Z,0.93
2019-02-11T14:40:55.393Z,1.70
2019-02-11T14:43:24.895Z,2.30
2019-02-11T14:45:55.143Z,1.47
2019-02-11T14:48:28.154Z,3.37
2019-02-11T14:50:55.990Z,1.33
2019-02-11T14:53:25.491Z,1.60
2019-02-11T14:55:58.354Z,2.30
2019-02-11T14:58:46.868Z,1.10
2019-02-11T15:01:16.787Z,1.10
2019-02-11T15:03:47.863Z,1.47
2019-02-11T15:06:17.466Z,1.30
2019-02-11T15:08:46.893Z,2.20
2019-02-11T15:11:17.717Z,1.57
2019-02-11T15:13:47.225Z,2.20
2019-02-11T15:16:16.678Z,0.90
2019-02-11T15:18:46.093Z,1.87
2019-02-11T15:23:50.723Z,0.77
2019-02-11T15:29:04.001Z,1.97
2019-02-11T15:31:33.416Z,2.03
2019-02-11T15:34:02.924Z,1.87
2019-02-11T15:36:32.368Z,0.90
2019-02-11T15:39:01.900Z,0.87
2019-02-11T15:41:31.714Z,1.27
2019-02-11T15:44:01.320Z,0.50
2019-02-11T15:46:30.722Z,1.37
2019-02-11T15:49:00.149Z,0.90
2019-02-11T15:51:29.743Z,1.00
2019-02-11T15:53:59.245Z,0.80
2019-02-11T15:56:28.692Z,1.60
2019-02-11T15:58:58.287Z,1.27
2019-02-11T16:01:27.710Z,1.37
2019-02-11T16:04:16.234Z,1.67
2019-02-11T16:06:46.099Z,0.77
2019-02-11T16:09:15.528Z,0.83
2019-02-11T16:12:04.161Z,1.23
2019-02-11T16:14:45.210Z,1.53
2019-02-11T16:17:14.696Z,2.00
2019-02-11T16:19:46.996Z,0.80
2019-02-11T16:25:05.168Z,1.80
2019-02-11T16:27:53.707Z,0.80
2019-02-11T16:30:23.237Z,1.17
2019-02-11T16:32:52.681Z,2.93
2019-02-11T16:35:22.244Z,1.27
2019-02-11T16:38:10.736Z,0.80
2019-02-11T16:40:40.275Z,2.17
2019-02-11T16:45:59.541Z,2.10
2019-02-11T16:48:28.955Z,1.93
2019-02-11T16:51:17.532Z,0.90
2019-02-11T16:53:58.432Z,0.93
2019-02-11T16:56:28.188Z,1.67
2019-02-11T16:58:57.706Z,2.97
2019-02-11T17:04:15.701Z,2.87
2019-02-11T17:07:04.807Z,3.40
2019-02-11T17:09:46.087Z,1.73
2019-02-11T17:12:15.556Z,1.10
2019-02-11T17:15:17.348Z,0.80
2019-02-11T17:17:47.031Z,0.70
2019-02-11T17:23:12.014Z,1.90
2019-02-11T17:25:41.707Z,1.87
2019-02-11T17:28:11.315Z,1.43
2019-02-11T17:31:07.241Z,0.70
2019-02-11T17:33:48.392Z,1.17
2019-02-11T17:36:18.541Z,1.93
2019-02-11T17:38:48.130Z,0.70
2019-02-11T17:41:17.779Z,2.20
2019-02-11T17:44:06.367Z,0.90
2019-02-11T17:46:36.013Z,1.40
2019-02-11T17:49:05.651Z,0.70
2019-02-11T17:51:35.169Z,1.93
2019-02-11T17:54:05.244Z,0.70
2019-02-11T17:56:34.677Z,1.07
2019-02-11T17:59:04.752Z,0.90
2019-02-11T18:07:16.621Z,3.53
2019-02-11T18:09:46.199Z,2.70
2019-02-11T18:12:15.767Z,0.80
2019-02-11T18:15:06.148Z,1.17
2019-02-11T18:17:35.682Z,1.13
2019-02-11T18:20:05.552Z,1.40
2019-02-11T18:22:54.102Z,1.50
2019-02-11T18:25:23.815Z,2.27
2019-02-11T18:27:55.003Z,0.87
2019-02-11T18:32:59.053Z,1.13
2019-02-11T18:35:29.099Z,1.40
2019-02-11T18:38:17.458Z,1.10
2019-02-11T18:41:06.259Z,1.80
2019-02-11T18:43:36.509Z,1.10
2019-02-11T18:46:25.461Z,1.20
2019-02-11T18:48:55.057Z,1.30
2019-02-11T18:51:24.636Z,1.10
2019-02-11T18:53:54.359Z,1.70
2019-02-11T18:56:29.047Z,0.70
2019-02-11T18:59:24.413Z,1.93
2019-02-11T19:02:02.362Z,1.57
2019-02-11T19:04:31.865Z,0.90
2019-02-11T19:07:01.348Z,1.00
2019-02-11T19:09:31.290Z,1.20
2019-02-11T19:12:19.721Z,1.60
2019-02-11T19:17:38.529Z,1.10
2019-02-11T19:20:09.132Z,0.80
2019-02-11T19:22:38.819Z,1.10
2019-02-11T19:25:09.250Z,1.77
2019-02-11T19:27:39.164Z,1.60
2019-02-11T19:30:14.947Z,3.80
2019-02-11T19:32:44.890Z,0.93
2019-02-11T19:35:33.507Z,0.67
2019-02-11T19:38:14.470Z,1.47
2019-02-11T19:40:44.182Z,2.97
2019-02-11T19:43:33.040Z,1.07
2019-02-11T19:46:14.702Z,1.90
2019-02-11T19:48:44.396Z,1.07
2019-02-11T19:51:14.271Z,1.33
2019-02-11T19:54:02.861Z,1.40
2019-02-11T19:56:32.800Z,1.65
2019-02-11T19:59:02.323Z,1.70
2019-02-11T20:01:32.463Z,1.00
2019-02-11T20:07:05.936Z,3.87
2019-02-11T20:09:35.466Z,1.27
2019-02-11T20:12:44.387Z,1.37
2019-02-11T20:18:06.447Z,1.20
2019-02-11T20:20:35.929Z,1.00
2019-02-11T20:23:24.620Z,1.60
2019-02-11T20:28:51.868Z,1.30
2019-02-11T20:31:33.932Z,1.00
2019-02-11T20:34:15.229Z,4.27
2019-02-11T20:36:45.220Z,0.70
2019-02-11T20:39:33.799Z,1.60
2019-02-11T20:42:03.469Z,1.70
2019-02-11T20:44:52.093Z,2.20
2019-02-11T20:47:21.832Z,2.03
2019-02-11T20:50:12.130Z,1.30
2019-02-11T20:52:41.769Z,1.33
2019-02-11T20:55:12.490Z,0.90
2019-02-11T21:03:11.890Z,1.47
2019-02-11T21:05:52.658Z,0.73
2019-02-11T21:08:22.641Z,1.33
2019-02-11T21:10:52.570Z,1.00
2019-02-11T21:13:22.297Z,1.20
2019-02-11T21:15:52.917Z,0.80
2019-02-11T21:18:22.680Z,0.90
2019-02-11T21:21:12.589Z,0.60
2019-02-11T21:23:42.003Z,2.23
2019-02-11T21:26:11.734Z,0.50
2019-02-11T21:28:53.568Z,1.00
2019-02-11T21:31:26.098Z,1.50
2019-02-11T21:36:32.490Z,1.80
2019-02-11T21:39:14.078Z,0.80
2019-02-11T21:41:45.592Z,2.10
2019-02-11T21:44:18.751Z,1.80
2019-02-11T21:54:42.438Z,2.23
2019-02-11T21:57:12.025Z,2.73
2019-02-11T21:59:41.584Z,1.67
2019-02-11T22:02:11.350Z,2.60
2019-02-11T22:04:40.996Z,1.90
2019-02-11T22:07:30.025Z,1.20
2019-02-11T22:13:01.986Z,1.43
2019-02-11T22:18:09.935Z,2.47
2019-02-11T22:20:39.891Z,0.83
2019-02-11T22:23:09.306Z,2.40
2019-02-11T22:25:38.993Z,1.60
2019-02-11T22:28:08.346Z,2.70
2019-02-11T22:30:40.933Z,1.00
2019-02-11T22:33:10.557Z,0.70
2019-02-11T22:35:40.304Z,0.80
2019-02-11T22:41:13.890Z,3.43
2019-02-11T22:43:44.051Z,1.13
2019-02-11T22:46:13.661Z,2.03
2019-02-11T22:48:43.259Z,0.90
2019-02-11T22:51:13.213Z,1.03
2019-02-11T22:53:42.825Z,1.23
2019-02-11T22:58:48.659Z,0.97
2019-02-11T23:01:29.846Z,1.70
2019-02-11T23:03:59.662Z,0.90
2019-02-11T23:06:29.273Z,1.57
2019-02-11T23:09:01.432Z,0.90
2019-02-11T23:12:09.179Z,1.20
2019-02-11T23:14:29.912Z,0.70
2019-02-11T23:16:59.744Z,0.80
2019-02-11T23:19:48.373Z,2.07
2019-02-11T23:22:19.806Z,3.00
2019-02-11T23:24:49.583Z,0.70
2019-02-11T23:29:54.265Z,1.47
2019-02-11T23:32:24.244Z,1.30
2019-02-11T23:34:53.994Z,1.00
2019-02-11T23:37:23.764Z,3.47
2019-02-11T23:39:53.506Z,1.10
2019-02-11T23:42:22.919Z,1.10
2019-02-11T23:44:52.694Z,0.90
2019-02-11T23:47:24.945Z,0.93
2019-02-11T23:49:54.520Z,0.90
2019-02-11T23:52:24.264Z,1.57
2019-02-11T23:54:53.969Z,0.80
2019-02-11T23:57:23.519Z,1.00
2019-02-11T23:59:52.980Z,1.20
